Time;durP1;ratioP1;P1;durP2;ratioP2;P2;SDS_P1;SDS_P2;PMS_P1;PMS_P2;Temp;Humidity;BMP_temperature;BMP_pressure;BME280_temperature;BME280_humidity;BME280_pressure;Samples;Min_cycle;Max_cycle;Signal;HPM_P1;HPM_P2
2023/08/04 00:00:33;;;;;;;3.57;2.40;;;19.60;89.70;;;22.40;56.74;100584.28;4977309;28;20239;-66
2023/08/04 00:03:00;;;;;;;3.70;2.67;;;19.50;89.60;;;22.43;56.68;100594.50;4977802;28;20201;-61
2023/08/04 00:05:28;;;;;;;7.30;2.57;;;19.60;89.60;;;22.45;56.48;100601.25;4977990;28;20196;-60
2023/08/04 00:07:55;;;;;;;6.00;2.63;;;19.60;89.60;;;22.48;56.48;100602.59;4977690;28;20220;-62
2023/08/04 00:10:22;;;;;;;2.97;2.43;;;19.60;89.70;;;22.52;56.25;100609.88;4977842;28;20279;-62
2023/08/04 00:12:49;;;;;;;5.87;2.53;;;19.60;89.70;;;22.57;56.27;100615.28;4977687;28;20228;-62
2023/08/04 00:15:16;;;;;;;7.67;2.77;;;19.60;89.70;;;22.58;56.14;100616.91;4978140;28;20231;-63
2023/08/04 00:17:45;;;;;;;8.30;2.97;;;19.60;89.50;;;22.60;56.11;100628.22;4977843;28;20203;-62
2023/08/04 00:20:12;;;;;;;4.63;2.33;;;19.60;89.30;;;22.60;56.11;100620.16;4976923;28;20645;-63
2023/08/04 00:22:39;;;;;;;4.60;2.47;;;19.60;89.20;;;22.60;56.40;100628.22;4977627;28;20224;-63
2023/08/04 00:25:07;;;;;;;3.00;2.13;;;19.60;89.10;;;22.61;55.97;100632.53;4977420;28;20204;-62
2023/08/04 00:27:34;;;;;;;6.00;2.60;;;19.70;89.10;;;22.57;56.19;100634.06;4977441;28;20196;-63
2023/08/04 00:30:02;;;;;;;6.43;2.30;;;19.70;88.90;;;22.58;56.01;100638.38;4976884;28;20750;-62
2023/08/04 00:32:31;;;;;;;5.63;2.17;;;19.70;88.70;;;22.58;56.13;100640.25;4977217;28;20189;-63
2023/08/04 00:34:59;;;;;;;6.20;2.60;;;19.70;88.80;;;22.56;55.71;100643.19;5014158;28;20199;-63
2023/08/04 00:37:29;;;;;;;4.17;2.20;;;19.70;88.50;;;22.55;55.78;100644.25;5015205;28;20274;-63
2023/08/04 00:39:56;;;;;;;5.13;2.23;;;19.70;88.40;;;22.53;56.03;100648.25;4996436;28;20244;-61
2023/08/04 00:42:23;;;;;;;5.97;2.63;;;19.70;88.30;;;22.51;55.97;100645.81;4996480;28;20230;-63
2023/08/04 00:44:50;;;;;;;5.07;2.57;;;19.60;88.40;;;22.55;55.72;100646.94;5011188;28;20721;-63
2023/08/04 00:47:17;;;;;;;4.47;2.33;;;19.60;88.50;;;22.55;55.52;100646.13;4996249;28;20548;-63
2023/08/04 00:49:45;;;;;;;4.03;2.23;;;19.60;88.30;;;22.51;55.86;100647.72;4996131;28;20302;-63
2023/08/04 00:52:14;;;;;;;6.47;2.60;;;19.60;88.10;;;22.46;55.58;100655.72;4996418;28;20727;-62
2023/08/04 00:54:43;;;;;;;7.07;2.77;;;19.60;88.10;;;22.43;55.70;100648.97;4996299;28;20628;-62
2023/08/04 00:57:11;;;;;;;5.10;2.27;;;19.60;88.10;;;22.40;55.72;100643.31;4995865;28;20195;-62
2023/08/04 00:59:38;;;;;;;7.27;2.50;;;19.60;88.20;;;22.39;55.66;100647.88;4995919;28;20796;-61
2023/08/04 01:02:05;;;;;;;3.50;2.37;;;19.50;88.30;;;22.39;55.79;100647.06;4995006;28;20555;-60
2023/08/04 01:04:32;;;;;;;4.03;2.53;;;19.50;88.40;;;22.37;55.87;100646.50;4994845;28;20279;-61
2023/08/04 01:07:17;;;;;;;6.53;2.67;;;19.50;88.50;;;22.32;55.77;100641.09;4995926;28;20200;-62
2023/08/04 01:09:56;;;;;;;5.00;2.20;;;19.50;88.50;;;22.29;56.11;100645.09;4995580;28;20266;-62
2023/08/04 01:12:35;;;;;;;7.40;2.67;;;19.50;88.50;;;22.26;55.82;100653.63;4995681;28;20549;-62
2023/08/04 01:15:04;;;;;;;9.60;3.00;;;19.40;88.60;;;22.25;56.03;100652.00;4995985;28;20233;-62
2023/08/04 01:17:32;;;;;;;5.27;2.70;;;19.40;88.70;;;22.24;56.09;100653.09;4995547;28;20254;-62
2023/08/04 01:19:59;;;;;;;7.73;2.90;;;19.40;88.80;;;22.19;56.18;100653.84;4995481;28;20212;-62
2023/08/04 01:22:27;;;;;;;5.17;2.83;;;19.40;88.90;;;22.18;56.18;100657.56;4995854;28;20231;-63
2023/08/04 01:24:55;;;;;;;6.17;2.57;;;19.30;89.00;;;22.16;56.46;100661.56;4995389;28;20278;-63
2023/08/04 01:27:30;;;;;;;6.90;2.80;;;19.30;89.20;;;22.14;56.16;100666.38;4995531;28;20274;-63
2023/08/04 01:30:02;;;;;;;5.57;2.50;;;19.30;89.30;;;22.11;56.30;100669.56;4995245;28;20223;-60
2023/08/04 01:32:29;;;;;;;8.90;2.57;;;19.30;89.50;;;22.12;56.43;100668.50;4995939;28;20191;-62
2023/08/04 01:34:58;;;;;;;5.93;2.80;;;19.20;89.40;;;22.12;56.70;100674.69;4995653;28;20195;-61
2023/08/04 01:37:25;;;;;;;5.63;2.67;;;19.30;89.70;;;22.12;56.66;100671.19;4995265;28;20191;-61
2023/08/04 01:39:53;;;;;;;4.50;2.37;;;19.20;89.60;;;22.10;56.88;100676.00;4995080;28;20255;-63
2023/08/04 01:42:20;;;;;;;8.83;2.83;;;19.30;89.80;;;22.05;56.84;100667.91;5010691;28;20214;-62
2023/08/04 01:44:47;;;;;;;5.87;2.67;;;19.20;89.70;;;22.04;56.72;100668.94;4995097;28;20192;-64
2023/08/04 01:47:14;;;;;;;5.30;2.97;;;19.20;90.00;;;22.03;56.61;100670.03;4995114;28;20278;-62
2023/08/04 01:49:41;;;;;;;8.17;3.03;;;19.20;90.00;;;22.01;57.10;100677.50;4995378;28;20693;-64
2023/08/04 01:52:08;;;;;;;6.90;3.00;;;19.20;90.10;;;22.00;56.90;100679.38;4995069;28;20223;-63
2023/08/04 01:54:35;;;;;;;5.80;2.87;;;19.20;90.10;;;22.00;57.52;100681.25;4995349;28;20744;-62
2023/08/04 01:57:04;;;;;;;6.73;3.10;;;19.10;90.20;;;22.00;56.89;100681.25;4995212;28;20227;-61
2023/08/04 01:59:31;;;;;;;6.53;3.43;;;19.10;90.20;;;21.99;57.13;100691.16;4994987;28;20627;-62
2023/08/04 02:01:58;;;;;;;8.47;3.30;;;19.10;90.30;;;21.98;57.34;100694.09;4994944;28;20568;-62
2023/08/04 02:04:25;;;;;;;8.50;3.33;;;19.10;90.20;;;21.94;57.55;100698.34;4995070;28;20187;-60
2023/08/04 02:06:52;;;;;;;7.23;3.30;;;19.10;90.30;;;21.91;57.46;100704.19;4995159;28;20199;-62
2023/08/04 02:09:19;;;;;;;5.20;2.80;;;19.10;90.30;;;21.87;57.82;100697.72;4994759;28;20286;-61
2023/08/04 02:11:46;;;;;;;6.77;2.93;;;19.00;90.30;;;21.83;57.76;100705.41;4994874;28;20210;-62
2023/08/04 02:14:16;;;;;;;5.73;3.27;;;19.00;90.30;;;21.82;57.95;100706.44;4994573;28;20196;-62
2023/08/04 02:16:43;;;;;;;7.83;3.47;;;19.00;90.50;;;21.81;57.67;100712.06;4994812;28;20368;-61
2023/08/04 02:19:10;;;;;;;4.30;2.83;;;19.00;90.50;;;21.83;57.91;100720.66;4994567;28;20196;-61
2023/08/04 02:21:37;;;;;;;6.20;3.17;;;18.90;90.60;;;21.85;58.02;100722.06;4994479;28;20218;-63
2023/08/04 02:24:05;;;;;;;9.33;2.87;;;18.90;90.60;;;21.89;57.95;100714.34;4994856;28;20192;-61
2023/08/04 02:26:32;;;;;;;4.13;3.00;;;18.90;90.70;;;21.93;58.22;100723.50;4994496;28;20282;-61
2023/08/04 02:28:59;;;;;;;5.83;3.00;;;19.00;90.70;;;21.98;58.12;100731.63;4994481;28;20203;-61
2023/08/04 02:31:29;;;;;;;6.87;2.70;;;19.00;90.70;;;22.00;57.77;100730.31;4995724;28;20266;-63
2023/08/04 02:33:56;;;;;;;6.80;3.13;;;19.10;90.70;;;21.98;57.78;100737.81;4995152;28;20586;-61
2023/08/04 02:36:23;;;;;;;5.27;2.90;;;19.10;90.60;;;21.94;57.62;100735.88;4994525;28;20199;-63
2023/08/04 02:38:50;;;;;;;6.07;2.83;;;19.10;90.60;;;21.89;57.63;100733.13;4994259;28;20262;-63
2023/08/04 02:41:17;;;;;;;7.30;3.33;;;19.00;90.50;;;21.84;58.25;100741.91;4994535;28;20234;-63
2023/08/04 02:43:44;;;;;;;7.77;3.33;;;19.00;90.60;;;21.82;57.92;100738.63;4994508;28;20219;-64
2023/08/04 02:46:12;;;;;;;5.70;3.07;;;19.00;90.60;;;21.80;58.12;100737.28;4994244;28;20204;-63
2023/08/04 02:48:40;;;;;;;8.33;3.17;;;19.00;90.70;;;21.79;58.10;100743.66;4994235;28;20200;-63
2023/08/04 02:51:10;;;;;;;4.60;3.07;;;19.00;90.70;;;21.80;57.81;100739.94;4994349;28;20212;-63
2023/08/04 02:53:42;;;;;;;8.20;3.53;;;18.90;90.80;;;21.83;58.06;100740.25;4994559;28;20187;-62
2023/08/04 02:56:10;;;;;;;7.10;3.30;;;18.90;90.90;;;21.88;58.22;100731.50;4994278;28;20263;-62
2023/08/04 02:58:37;;;;;;;4.57;2.73;;;18.90;90.90;;;21.93;57.88;100740.41;4994273;28;20192;-62
2023/08/04 03:01:05;;;;;;;10.63;3.27;;;19.00;90.90;;;21.96;57.85;100739.94;4994417;28;20230;-62
2023/08/04 03:03:33;;;;;;;6.20;3.17;;;19.00;90.90;;;21.98;58.23;100743.16;4994166;28;20234;-63
2023/08/04 03:06:02;;;;;;;6.67;3.07;;;19.00;90.90;;;22.02;58.02;100748.81;4994076;28;20200;-63
2023/08/04 03:08:31;;;;;;;8.50;2.93;;;19.00;90.90;;;22.09;57.79;100746.75;4993470;28;20254;-63
2023/08/04 03:10:59;;;;;;;5.93;3.30;;;19.10;91.00;;;22.12;57.95;100755.13;4994134;28;20673;-61
2023/08/04 03:13:26;;;;;;;5.40;2.80;;;19.10;91.00;;;22.17;57.70;100749.03;4993887;28;20537;-62
2023/08/04 03:15:58;;;;;;;8.27;2.50;;;19.10;90.90;;;22.20;57.30;100751.22;4993991;28;20210;-63
2023/08/04 03:18:26;;;;;;;5.23;2.17;;;19.20;90.90;;;22.24;57.72;100753.13;4994626;28;20192;-61
2023/08/04 03:20:53;;;;;;;4.87;3.00;;;19.20;90.80;;;22.27;57.70;100763.34;4994040;28;20212;-63
2023/08/04 03:23:22;;;;;;;3.43;2.23;;;19.30;90.70;;;22.27;57.33;100762.56;4994073;28;20204;-61
2023/08/04 03:25:49;;;;;;;6.50;2.73;;;19.20;90.70;;;22.30;57.35;100762.03;4996656;28;20200;-62
2023/08/04 03:28:17;;;;;;;3.63;2.23;;;19.30;90.70;;;22.32;57.33;100770.66;4997821;28;20196;-63
2023/08/04 03:30:44;;;;;;;8.00;2.80;;;19.30;90.60;;;22.32;57.57;100770.66;4997595;28;20247;-62
2023/08/04 03:33:11;;;;;;;5.33;2.60;;;19.30;90.50;;;22.31;57.26;100774.41;4997476;28;20274;-63
2023/08/04 03:35:38;;;;;;;6.33;2.60;;;19.40;90.50;;;22.31;57.04;100774.41;4997812;28;20589;-63
2023/08/04 03:38:06;;;;;;;4.67;2.80;;;19.40;90.40;;;22.30;56.95;100783.50;5002853;28;20195;-63
2023/08/04 03:40:34;;;;;;;7.00;2.90;;;19.40;90.30;;;22.30;56.93;100778.13;5017007;28;20310;-63
2023/08/04 03:43:01;;;;;;;5.27;2.53;;;19.40;90.30;;;22.29;56.86;100776.53;5017008;28;20687;-62
2023/08/04 03:45:28;;;;;;;7.37;2.97;;;19.40;90.30;;;22.29;56.91;100781.88;5003142;28;20187;-63
2023/08/04 03:47:55;;;;;;;5.53;2.73;;;19.40;90.30;;;22.26;56.75;100787.75;4997110;28;20299;-62
2023/08/04 03:50:25;;;;;;;3.90;2.10;;;19.40;90.20;;;22.24;56.97;100784.50;4996980;28;20271;-63
2023/08/04 03:52:52;;;;;;;4.93;2.57;;;19.40;90.30;;;22.26;57.27;100793.09;4995864;28;20200;-64
2023/08/04 03:55:19;;;;;;;3.87;2.63;;;19.40;90.30;;;22.24;57.08;100792.56;4997167;28;20219;-63
2023/08/04 03:57:47;;;;;;;4.67;2.50;;;19.30;90.20;;;22.22;56.96;100797.34;4997303;28;20351;-62
2023/08/04 04:00:15;;;;;;;4.73;2.67;;;19.30;90.20;;;22.19;56.95;100797.84;4997216;28;20584;-63
2023/08/04 04:02:42;;;;;;;5.17;2.60;;;19.30;90.20;;;22.19;57.01;100803.22;4997183;28;20208;-63
2023/08/04 04:05:09;;;;;;;5.70;2.83;;;19.30;90.20;;;22.18;56.85;100802.41;4996935;28;20200;-63
2023/08/04 04:07:36;;;;;;;5.97;2.40;;;19.30;90.20;;;22.15;57.32;100802.09;4996969;28;20607;-61
2023/08/04 04:10:04;;;;;;;5.43;2.70;;;19.30;90.20;;;22.13;57.04;100804.22;4996966;28;20215;-63
2023/08/04 04:12:33;;;;;;;8.70;2.70;;;19.20;90.20;;;22.13;56.87;100807.69;4996596;28;20292;-62
2023/08/04 04:15:04;;;;;;;6.47;2.47;;;19.20;90.30;;;22.11;57.02;100801.78;4996711;28;20664;-63
2023/08/04 04:17:31;;;;;;;6.90;2.80;;;19.20;90.30;;;22.08;57.24;100812.19;4996865;28;20203;-63
2023/08/04 04:19:58;;;;;;;6.57;2.40;;;19.20;90.30;;;22.07;57.51;100810.56;4996032;28;20220;-63
2023/08/04 04:22:25;;;;;;;4.53;2.60;;;19.20;90.30;;;22.04;57.28;100811.03;4996701;28;20311;-63
2023/08/04 04:24:52;;;;;;;5.27;2.73;;;19.20;90.30;;;22.04;57.43;100811.03;4996489;28;20192;-63
2023/08/04 04:27:19;;;;;;;6.27;2.90;;;19.20;90.30;;;22.00;57.50;100816.09;4996581;28;20677;-63
2023/08/04 04:29:46;;;;;;;6.07;2.73;;;19.20;90.30;;;21.98;57.37;100817.41;4996263;28;20295;-62
2023/08/04 04:32:14;;;;;;;6.63;3.00;;;19.10;90.30;;;21.96;57.60;100817.66;4996481;28;20716;-62
2023/08/04 04:34:42;;;;;;;6.00;2.63;;;19.10;90.50;;;21.95;57.43;100828.63;4996435;28;20195;-63
2023/08/04 04:37:09;;;;;;;7.37;3.00;;;19.10;90.50;;;21.94;57.72;100827.00;4995818;28;20202;-63
2023/08/04 04:39:36;;;;;;;6.00;2.87;;;19.10;90.50;;;21.93;57.71;100825.38;5014190;28;20219;-63
2023/08/04 04:42:05;;;;;;;4.80;2.50;;;19.10;90.60;;;21.92;57.96;100834.47;5015939;28;20219;-62
2023/08/04 04:44:32;;;;;;;5.60;3.40;;;19.10;90.60;;;21.90;57.64;100831.22;5009745;28;20191;-62
2023/08/04 04:46:59;;;;;;;6.43;2.47;;;19.10;90.60;;;21.90;57.91;100826.69;4996094;28;20593;-63
2023/08/04 04:49:27;;;;;;;7.07;3.10;;;19.00;90.70;;;21.92;57.93;100834.47;4996018;28;20219;-63
2023/08/04 04:51:54;;;;;;;6.07;2.43;;;19.00;90.70;;;21.91;57.71;100832.88;4996410;28;20639;-63
2023/08/04 04:54:22;;;;;;;8.47;3.10;;;19.10;90.80;;;21.92;58.05;100829.94;4996001;28;20204;-64
2023/08/04 04:56:49;;;;;;;6.50;2.53;;;19.00;90.70;;;21.92;57.94;100821.06;4995681;28;20196;-63
2023/08/04 04:59:16;;;;;;;3.83;2.33;;;19.00;90.70;;;21.92;58.12;100832.59;4995741;28;20243;-63
2023/08/04 05:01:44;;;;;;;7.70;2.90;;;19.00;90.80;;;21.90;58.18;100847.31;4995967;28;20306;-63
2023/08/04 05:04:11;;;;;;;4.53;2.83;;;19.10;90.80;;;21.90;58.05;100853.50;4995738;28;20633;-63
2023/08/04 05:06:39;;;;;;;7.07;3.10;;;19.10;90.80;;;21.92;58.10;100846.00;4995635;28;20192;-63
2023/08/04 05:09:08;;;;;;;7.00;2.90;;;19.10;90.80;;;21.94;57.63;100848.47;4995305;28;20203;-63
2023/08/04 05:11:35;;;;;;;5.10;2.87;;;19.10;90.80;;;21.94;58.12;100851.16;4995607;28;20194;-63
2023/08/04 05:14:02;;;;;;;3.80;2.93;;;19.10;90.80;;;21.94;58.24;100853.81;4995143;28;20266;-61
2023/08/04 05:16:31;;;;;;;6.60;2.90;;;19.10;90.70;;;21.96;58.07;100851.72;4995519;28;20535;-63
2023/08/04 05:18:58;;;;;;;5.93;3.13;;;19.10;90.80;;;21.93;58.03;100857.56;4995701;28;20226;-62
2023/08/04 05:21:25;;;;;;;5.07;2.77;;;19.10;90.70;;;21.91;58.06;100859.66;4996447;28;20212;-63
2023/08/04 05:23:54;;;;;;;4.87;2.77;;;19.10;90.70;;;21.92;57.75;100863.97;4995683;28;20200;-63
2023/08/04 05:26:21;;;;;;;5.23;2.80;;;19.10;90.70;;;21.94;57.95;100861.88;4995533;28;20202;-63
2023/08/04 05:28:48;;;;;;;5.90;2.90;;;19.10;90.80;;;21.99;57.70;100867.28;4995041;28;20727;-62
2023/08/04 05:31:15;;;;;;;9.17;3.57;;;19.10;90.80;;;22.03;57.94;100857.72;4995133;28;20319;-63
2023/08/04 05:33:42;;;;;;;8.80;2.83;;;19.10;90.80;;;22.07;58.04;100874.91;4995346;28;20274;-63
2023/08/04 05:36:09;;;;;;;3.13;2.50;;;19.10;90.70;;;22.10;57.78;100869.88;4995416;28;20552;-63
2023/08/04 05:38:36;;;;;;;6.33;3.03;;;19.10;90.70;;;22.13;57.95;100871.25;4995042;28;20536;-63
2023/08/04 05:41:05;;;;;;;6.57;2.80;;;19.20;90.70;;;22.18;57.70;100871.31;4995244;28;20219;-63
2023/08/04 05:43:32;;;;;;;5.50;2.43;;;19.20;90.70;;;22.22;57.49;100875.94;4993856;28;20685;-62
2023/08/04 05:46:04;;;;;;;4.43;2.63;;;19.20;90.70;;;22.29;57.21;100874.94;4994513;28;20235;-62
2023/08/04 05:48:33;;;;;;;4.47;2.70;;;19.30;90.70;;;22.32;57.54;100872.59;4994068;28;20712;-63
2023/08/04 05:51:00;;;;;;;5.70;2.80;;;19.30;90.60;;;22.36;57.30;100878.25;4994318;28;20216;-62
2023/08/04 05:53:27;;;;;;;4.73;2.53;;;19.30;90.50;;;22.38;57.16;100876.13;4995026;28;20204;-62
2023/08/04 05:55:54;;;;;;;5.43;3.17;;;19.40;90.60;;;22.41;56.96;100886.38;4994604;28;20609;-64
2023/08/04 05:58:23;;;;;;;8.07;2.93;;;19.40;90.40;;;22.42;56.78;100888.81;4994812;28;20196;-63
2023/08/04 06:00:51;;;;;;;8.50;2.67;;;19.40;90.30;;;22.40;56.94;100885.56;4994481;28;20216;-65
2023/08/04 06:03:18;;;;;;;4.07;2.70;;;19.40;90.20;;;22.37;56.73;100891.41;4994771;28;20584;-61
2023/08/04 06:05:45;;;;;;;7.37;2.80;;;19.40;90.30;;;22.39;56.78;100900.06;4994786;28;20279;-62
2023/08/04 06:08:12;;;;;;;7.23;2.50;;;19.50;90.20;;;22.40;56.85;100901.66;4994571;28;20191;-65
2023/08/04 06:10:39;;;;;;;5.33;2.53;;;19.50;90.20;;;22.45;56.72;100904.41;4994022;28;20298;-62
2023/08/04 06:13:06;;;;;;;5.13;2.30;;;19.50;90.20;;;22.46;56.56;100906.03;4994682;28;20259;-62
2023/08/04 06:15:35;;;;;;;5.93;2.47;;;19.50;90.10;;;22.51;56.76;100906.09;4993966;28;20679;-62
2023/08/04 06:18:02;;;;;;;7.23;2.60;;;19.50;90.10;;;22.55;56.52;100904.56;4994438;28;20279;-63
2023/08/04 06:20:29;;;;;;;6.77;2.60;;;19.50;90.10;;;22.58;56.48;100913.97;4994299;28;20568;-63
2023/08/04 06:22:56;;;;;;;4.17;2.50;;;19.60;90.10;;;22.60;56.32;100918.03;4994221;28;20220;-62
2023/08/04 06:25:23;;;;;;;6.10;2.40;;;19.60;90.00;;;22.61;56.31;100925.03;4994168;28;20192;-63
2023/08/04 06:27:53;;;;;;;4.17;2.20;;;19.60;90.00;;;22.63;56.22;100928.28;4994299;28;20194;-63
2023/08/04 06:30:20;;;;;;;4.27;2.43;;;19.60;90.00;;;22.66;56.32;100929.66;4993956;28;20223;-63
2023/08/04 06:32:49;;;;;;;3.83;2.20;;;19.70;90.10;;;22.66;56.14;100933.16;4994241;28;20242;-63
2023/08/04 06:35:17;;;;;;;3.57;2.00;;;19.70;90.10;;;22.69;56.46;100932.66;4994319;28;20195;-62
2023/08/04 06:37:44;;;;;;;5.67;2.50;;;19.70;90.30;;;22.72;56.47;100940.22;4994184;28;20203;-65
2023/08/04 06:40:11;;;;;;;4.63;2.43;;;19.70;90.20;;;22.76;56.19;100933.28;4993876;28;20657;-63
2023/08/04 06:42:38;;;;;;;5.43;3.03;;;19.70;90.20;;;22.80;56.43;100950.53;4994132;28;20207;-64
2023/08/04 06:45:07;;;;;;;4.53;2.13;;;19.70;90.20;;;22.81;56.22;100941.41;4994386;28;20221;-65
2023/08/04 06:47:34;;;;;;;4.90;2.70;;;19.70;90.20;;;22.81;56.29;100938.72;4992575;28;20220;-64
2023/08/04 06:50:03;;;;;;;5.80;2.60;;;19.80;90.30;;;22.88;56.62;100946.59;4993907;28;20279;-62
2023/08/04 06:52:31;;;;;;;4.80;1.97;;;19.80;90.30;;;22.94;56.36;100952.84;4993608;28;20283;-63
2023/08/04 06:54:58;;;;;;;4.23;2.67;;;19.80;90.30;;;22.99;56.01;100955.59;4993966;28;20275;-62
2023/08/04 06:57:25;;;;;;;5.23;2.90;;;19.90;90.20;;;23.02;55.94;100952.38;4994087;28;20291;-64
2023/08/04 06:59:52;;;;;;;4.53;2.53;;;19.90;90.10;;;23.06;55.82;100953.53;4996607;28;20287;-63
2023/08/04 07:02:19;;;;;;;2.73;2.10;;;19.90;90.10;;;23.11;55.80;100945.50;4997773;28;20250;-64
2023/08/04 07:04:46;;;;;;;5.30;2.43;;;19.90;89.80;;;23.18;55.44;100956.84;4997776;28;20211;-63
2023/08/04 07:07:15;;;;;;;4.13;2.33;;;20.00;89.70;;;23.26;55.20;100959.09;5004391;28;20191;-63
2023/08/04 07:09:42;;;;;;;5.00;2.00;;;20.00;89.60;;;23.36;55.24;100965.44;5016960;28;20576;-62
2023/08/04 07:12:09;;;;;;;3.30;2.23;;;20.10;89.20;;;23.46;54.94;100962.84;5014699;28;20273;-62
2023/08/04 07:14:36;;;;;;;3.13;2.10;;;20.20;89.10;;;23.54;54.46;100966.94;5017076;28;20274;-63
2023/08/04 07:17:04;;;;;;;4.67;2.30;;;20.30;88.40;;;23.56;53.77;100968.31;5013446;28;20283;-63
2023/08/04 07:19:31;;;;;;;4.53;1.60;;;20.30;87.80;;;23.60;53.89;100965.13;4993865;28;20238;-63
2023/08/04 07:21:58;;;;;;;2.77;1.93;;;20.30;87.30;;;23.63;53.73;100962.72;4996479;28;20286;-63
2023/08/04 07:24:27;;;;;;;1.87;1.60;;;20.40;87.20;;;23.70;53.42;100966.03;4997460;28;20295;-63
2023/08/04 07:26:56;;;;;;;4.00;2.40;;;20.50;87.70;;;23.73;53.30;100965.50;4997458;28;20287;-62
2023/08/04 07:29:23;;;;;;;4.50;1.80;;;20.50;86.40;;;23.74;52.69;100972.53;4996957;28;20224;-62
2023/08/04 07:31:50;;;;;;;3.60;1.80;;;20.50;86.10;;;23.76;52.99;100966.88;4997393;28;20219;-61
2023/08/04 07:34:17;;;;;;;2.23;1.67;;;20.60;86.00;;;23.80;52.72;100976.88;4997395;28;20198;-61
2023/08/04 07:36:44;;;;;;;2.30;1.40;;;20.60;85.60;;;23.81;52.20;100975.81;4997307;28;20200;-62
2023/08/04 07:39:11;;;;;;;3.63;1.83;;;20.60;85.30;;;23.82;52.53;100969.34;4996406;28;20275;-62
2023/08/04 07:41:39;;;;;;;2.97;1.70;;;20.60;85.10;;;23.89;52.04;100969.16;4996917;28;20196;-63
2023/08/04 07:44:06;;;;;;;1.23;1.17;;;20.60;84.90;;;23.94;52.28;100972.69;4994190;28;20228;-63
2023/08/04 07:46:33;;;;;;;2.77;1.50;;;20.70;85.60;;;24.00;51.39;100977.06;4977416;28;20201;-62
2023/08/04 07:49:00;;;;;;;3.00;1.40;;;20.70;84.50;;;24.04;51.43;100982.72;4976234;28;20275;-62
2023/08/04 07:51:28;;;;;;;3.07;1.77;;;20.80;84.50;;;24.14;51.20;100986.34;4977048;28;20276;-62
2023/08/04 07:53:55;;;;;;;2.43;1.50;;;20.80;84.30;;;24.25;51.15;100984.50;4977254;28;20220;-62
2023/08/04 07:56:22;;;;;;;1.33;1.23;;;20.90;84.30;;;24.37;50.75;100982.44;4988757;28;20204;-62
2023/08/04 07:58:50;;;;;;;4.53;1.47;;;21.00;83.30;;;24.51;49.99;100986.31;4995645;28;20295;-61
2023/08/04 08:01:17;;;;;;;2.57;1.67;;;21.10;82.80;;;24.70;49.55;100983.97;4994684;28;20196;-62
2023/08/04 08:03:44;;;;;;;3.23;1.70;;;21.20;82.70;;;25.05;49.53;100983.38;4995550;28;20215;-62
2023/08/04 08:06:12;;;;;;;3.47;1.80;;;21.30;82.70;;;25.50;48.92;100989.75;4995798;28;20196;-62
2023/08/04 08:08:39;;;;;;;1.90;1.30;;;21.60;82.40;;;25.79;48.16;100986.53;4995862;28;20207;-64
2023/08/04 08:11:09;;;;;;;2.37;1.33;;;21.80;81.10;;;25.93;47.33;100985.75;4995142;28;20597;-63
2023/08/04 08:13:37;;;;;;;1.67;1.20;;;22.00;80.00;;;26.05;46.84;100988.16;4996481;28;20247;-63
2023/08/04 08:16:12;;;;;;;3.63;1.67;;;22.20;79.70;;;26.15;46.91;100994.38;4994222;28;20212;-63
2023/08/04 08:18:43;;;;;;;2.23;1.80;;;22.40;79.10;;;26.29;46.64;100994.66;4994185;28;20711;-61
2023/08/04 08:21:10;;;;;;;3.63;1.77;;;22.60;78.80;;;26.51;46.21;100995.16;4999959;28;20252;-63
2023/08/04 08:23:38;;;;;;;4.27;1.80;;;22.70;78.80;;;27.04;45.82;100996.38;5004264;28;20672;-62
2023/08/04 08:26:05;;;;;;;2.20;1.43;;;22.90;78.60;;;27.75;43.87;101004.91;4997245;28;20700;-59
2023/08/04 08:28:32;;;;;;;2.23;1.50;;;23.20;77.60;;;27.97;43.41;101002.56;4999989;28;20196;-61
2023/08/04 08:30:59;;;;;;;5.43;1.37;;;23.60;76.60;;;27.89;42.76;101008.59;5004136;28;20216;-62
2023/08/04 08:33:28;;;;;;;2.93;1.43;;;23.80;74.40;;;27.62;42.75;101008.25;4975610;28;20558;-62
2023/08/04 08:35:56;;;;;;;2.73;1.50;;;23.90;73.90;;;27.35;42.64;101008.66;4985697;28;20691;-62
2023/08/04 08:38:23;;;;;;;3.20;1.90;;;23.80;72.50;;;27.11;43.42;101014.97;4995811;28;20266;-62
2023/08/04 08:40:50;;;;;;;3.00;1.63;;;23.80;73.00;;;26.88;44.13;101023.72;4998046;28;20281;-62
2023/08/04 08:43:17;;;;;;;3.70;1.80;;;23.70;73.50;;;26.80;43.86;101022.38;5003806;28;20239;-65
2023/08/04 08:45:47;;;;;;;2.90;1.33;;;23.60;73.30;;;26.74;44.56;101024.25;5002276;28;20277;-62
2023/08/04 08:48:14;;;;;;;3.30;1.40;;;23.50;73.80;;;26.68;44.47;101019.97;5002946;28;20206;-62
2023/08/04 08:50:50;;;;;;;1.53;1.20;;;23.50;74.10;;;26.54;44.50;101024.31;4992039;28;20752;-61
2023/08/04 08:53:25;;;;;;;3.87;1.47;;;23.40;74.10;;;26.49;44.53;101020.81;4996513;28;20206;-62
2023/08/04 08:55:52;;;;;;;3.53;1.70;;;23.30;74.20;;;26.60;45.02;101017.81;5000993;28;20654;-62
2023/08/04 08:58:20;;;;;;;2.23;1.20;;;23.30;74.80;;;26.80;44.97;101028.59;4999324;28;20226;-63
2023/08/04 09:00:49;;;;;;;1.90;1.57;;;23.30;75.10;;;26.96;44.17;101033.97;5001396;28;20318;-63
2023/08/04 09:03:16;;;;;;;2.17;1.30;;;23.40;74.60;;;27.17;43.83;101033.59;5003280;28;20211;-62
2023/08/04 09:05:44;;;;;;;2.70;1.27;;;23.40;74.10;;;27.44;42.78;101033.22;5002047;28;20257;-63
2023/08/04 09:08:12;;;;;;;2.70;1.23;;;23.50;73.10;;;27.77;41.88;101037.91;4999648;28;20194;-62
2023/08/04 09:10:39;;;;;;;2.00;1.57;;;23.70;72.40;;;28.28;41.35;101043.78;5002650;28;20215;-63
2023/08/04 09:13:08;;;;;;;1.57;1.47;;;23.90;72.10;;;28.49;40.88;101037.06;5010432;28;20191;-62
2023/08/04 09:15:47;;;;;;;1.50;1.40;;;24.20;71.70;;;28.94;40.43;101037.69;4998156;28;20203;-62
2023/08/04 09:18:25;;;;;;;1.87;1.33;;;24.40;71.00;;;29.16;39.39;101027.94;4994364;28;20211;-60
2023/08/04 09:21:09;;;;;;;1.63;1.53;;;24.70;70.20;;;29.19;38.14;101026.59;5004085;28;20277;-63
2023/08/04 09:23:42;;;;;;;2.73;2.53;;;24.90;68.10;;;29.22;38.90;101034.94;5001592;28;20319;-62
2023/08/04 09:26:09;;;;;;;1.93;0.90;;;25.10;68.10;;;29.19;37.97;101038.22;5008417;28;20668;-64
2023/08/04 09:28:36;;;;;;;1.17;1.00;;;25.10;66.40;;;29.13;38.69;101042.06;4998851;28;20202;-64
2023/08/04 09:31:06;;;;;;;0.77;0.70;;;25.20;66.30;;;29.69;37.74;101035.91;5001511;28;20224;-63
2023/08/04 09:33:37;;;;;;;1.40;1.10;;;25.30;66.10;;;30.31;37.17;101043.59;5013771;28;20261;-62
2023/08/04 09:36:09;;;;;;;0.77;0.73;;;25.50;65.80;;;30.65;35.29;101038.69;5014141;28;20186;-62
2023/08/04 09:38:37;;;;;;;0.83;0.80;;;25.80;63.50;;;30.77;34.64;101036.28;5001345;28;20276;-63
2023/08/04 09:41:07;;;;;;;2.43;0.93;;;26.00;62.30;;;31.33;34.41;101041.38;4995731;28;20246;-62
2023/08/04 09:43:45;;;;;;;1.50;0.90;;;26.20;62.30;;;31.63;33.42;101053.56;5089496;28;20896;-63
2023/08/04 09:46:12;;;;;;;1.17;0.90;;;26.50;60.30;;;31.84;32.79;101046.53;5070178;28;20255;-63
2023/08/04 09:48:40;;;;;;;0.70;0.70;;;26.70;59.70;;;31.79;32.16;101049.38;5069479;28;20224;-62
2023/08/04 09:51:08;;;;;;;0.60;0.60;;;26.80;57.70;;;31.65;32.87;101050.53;5046109;28;20212;-62
2023/08/04 09:53:43;;;;;;;0.90;0.80;;;26.90;58.00;;;31.63;33.27;101048.13;5047479;28;20630;-62
2023/08/04 09:56:11;;;;;;;1.00;0.90;;;26.90;58.00;;;31.40;33.01;101041.00;5043417;28;20666;-64
2023/08/04 09:58:39;;;;;;;0.93;0.80;;;27.00;57.10;;;30.88;32.89;101045.03;5046045;28;20220;-62
2023/08/04 10:01:08;;;;;;;1.70;0.90;;;26.90;57.50;;;30.24;33.43;101043.19;5047142;28;20264;-63
2023/08/04 10:03:39;;;;;;;2.20;0.80;;;26.70;56.50;;;29.68;34.85;101054.13;5046758;28;20264;-63
2023/08/04 10:06:07;;;;;;;1.03;0.90;;;26.40;57.00;;;29.43;34.98;101055.25;5045380;28;20236;-60
2023/08/04 10:08:39;;;;;;;2.10;1.10;;;26.10;57.70;;;29.66;35.00;101055.50;5046769;28;20182;-65
2023/08/04 10:11:07;;;;;;;2.13;1.03;;;25.90;58.50;;;29.68;34.81;101056.00;5048100;28;20216;-62
2023/08/04 10:13:39;;;;;;;1.90;1.13;;;25.90;58.60;;;29.79;34.60;101057.50;5048904;28;20592;-63
2023/08/04 10:16:11;;;;;;;1.00;1.00;;;25.80;58.60;;;29.95;34.63;101061.63;5048668;28;20627;-62